Surrey, North Dakota
Current Conditions -  °F | °C
As of 11:54 PM on Thursday 30 Oct 2014 (Local Time) from KMOT Reporting Station
Clear Clear  
Wind Chill: 13°   Ceiling: Unl
Heat Index: 20°   Visibility: 10mi
Dew Point: 16°   Wind: 5mph
Humidity: 85%   Direction: 220°SW
Pressure: 30.56"   Gusts: NA
Location:  48.24°N, 101.13°W
Report Text: KMOT 310454Z 22004KT 10SM CLR M07/M09 A3056 RMK AO2 SLP376 T10671089
Loading
Personal Weather Stations






























Interactive Weather Map
Tropical Storm Tracking
New forecast layout! Learn more

10-Day Weather Forecast

Advertisements
Track Severe Weather on mobile